States of Jersey

Home Log in

Channel Islands Terminal Aerodrome Forecasts (TAFs) issued Wednesday, 18 July 2018

Jersey Airport - EGJJ

180204Z 1803/1812 VRB05KT 9999 FEW020 BKN045 BECMG 1812/1814 36010KT

Guernsey Airport - EGJB

180204Z 1803/1812 VRB05KT 9999 FEW020 BKN045=

Alderney Airport - EGJA

180204Z 1803/1812 Nil